createdAt,value
2023-03-29T00:00:52.581Z,40.04
2023-03-29T00:01:52.627Z,40.04
2023-03-29T00:02:52.839Z,40.04
2023-03-29T00:03:52.782Z,40.04
2023-03-29T00:04:52.694Z,40.02
2023-03-29T00:05:52.753Z,40.03
2023-03-29T00:06:52.785Z,40.03
2023-03-29T00:07:52.809Z,40.04
2023-03-29T00:08:52.840Z,40.01
2023-03-29T00:09:52.879Z,40.04
2023-03-29T00:10:52.920Z,40.02
2023-03-29T00:11:52.953Z,40.01
2023-03-29T00:12:52.994Z,40.00
2023-03-29T00:13:53.037Z,39.99
2023-03-29T00:14:53.070Z,40.01
2023-03-29T00:15:53.105Z,40.00
2023-03-29T00:16:53.186Z,40.00
2023-03-29T00:17:53.204Z,39.98
2023-03-29T00:18:53.211Z,39.97
2023-03-29T00:19:53.255Z,39.96
2023-03-29T00:20:53.302Z,39.96
2023-03-29T00:21:53.350Z,39.96
2023-03-29T00:22:53.377Z,39.94
2023-03-29T00:23:53.430Z,39.95
2023-03-29T00:24:53.457Z,39.96
2023-03-29T00:25:53.499Z,39.95
2023-03-29T00:26:53.549Z,39.93
2023-03-29T00:27:53.600Z,39.86
2023-03-29T00:28:53.625Z,39.90
2023-03-29T00:29:53.681Z,39.89
2023-03-29T00:30:53.796Z,39.88
2023-03-29T00:31:53.820Z,39.88
2023-03-29T00:32:53.846Z,39.87
2023-03-29T00:33:53.845Z,39.87
2023-03-29T00:34:53.883Z,39.85
2023-03-29T00:35:53.984Z,39.87
2023-03-29T00:36:53.968Z,39.86
2023-03-29T00:37:54.005Z,39.85
2023-03-29T00:38:54.044Z,39.85
2023-03-29T00:39:54.086Z,39.86
2023-03-29T00:40:54.129Z,39.87
2023-03-29T00:41:54.177Z,39.88
2023-03-29T00:42:54.211Z,39.84
2023-03-29T00:43:54.251Z,39.86
2023-03-29T00:44:54.291Z,39.88
2023-03-29T00:45:54.394Z,39.82
2023-03-29T00:46:54.393Z,39.82
2023-03-29T00:47:54.451Z,39.80
2023-03-29T00:48:54.450Z,39.84
2023-03-29T00:49:54.491Z,39.81
2023-03-29T00:50:54.544Z,39.84
2023-03-29T00:51:54.588Z,39.81
2023-03-29T00:52:54.616Z,39.82
2023-03-29T00:53:54.655Z,39.81
2023-03-29T00:54:54.705Z,39.83
2023-03-29T00:55:54.754Z,39.82
2023-03-29T00:56:54.826Z,39.80
2023-03-29T00:57:54.835Z,39.79
2023-03-29T00:58:54.891Z,39.78
2023-03-29T00:59:54.917Z,39.76
2023-03-29T01:00:54.967Z,39.77
2023-03-29T01:01:55.356Z,39.74
2023-03-29T01:02:55.189Z,39.75
2023-03-29T01:03:55.110Z,39.79
2023-03-29T01:04:55.129Z,39.75
2023-03-29T01:05:55.156Z,39.75
2023-03-29T01:06:55.240Z,39.72
2023-03-29T01:07:55.226Z,39.73
2023-03-29T01:08:55.288Z,39.73
2023-03-29T01:09:55.316Z,39.75
2023-03-29T01:10:55.423Z,39.73
2023-03-29T01:11:55.389Z,39.75
2023-03-29T01:12:55.424Z,39.74
2023-03-29T01:13:55.474Z,39.74
2023-03-29T01:14:55.509Z,39.72
2023-03-29T01:15:55.595Z,39.72
2023-03-29T01:16:55.738Z,39.71
2023-03-29T01:17:55.757Z,39.72
2023-03-29T01:18:55.665Z,39.70
2023-03-29T01:19:55.705Z,39.71
2023-03-29T01:20:55.753Z,39.68
2023-03-29T01:21:55.800Z,39.70
2023-03-29T01:22:55.844Z,39.70
2023-03-29T01:23:55.884Z,39.70
2023-03-29T01:24:55.936Z,39.68
2023-03-29T01:25:55.968Z,39.68
2023-03-29T01:26:56.008Z,39.70
2023-03-29T01:27:56.052Z,39.68
2023-03-29T01:28:56.108Z,39.68
2023-03-29T01:29:56.134Z,39.65
2023-03-29T01:30:56.192Z,39.65
2023-03-29T01:31:56.282Z,39.62
2023-03-29T01:32:56.333Z,39.63
2023-03-29T01:33:56.307Z,39.63
2023-03-29T01:34:56.346Z,39.60
2023-03-29T01:35:56.408Z,39.58
2023-03-29T01:36:56.426Z,39.59
2023-03-29T01:37:56.470Z,39.57
2023-03-29T01:38:56.514Z,39.56
2023-03-29T01:39:56.543Z,39.54
2023-03-29T01:40:56.592Z,39.56
2023-03-29T01:41:56.637Z,39.50
2023-03-29T01:42:56.666Z,39.52
2023-03-29T01:43:56.708Z,39.50
2023-03-29T01:44:56.739Z,39.49
2023-03-29T01:45:56.803Z,39.44
2023-03-29T01:46:56.801Z,39.47
2023-03-29T01:47:56.885Z,39.44
2023-03-29T01:48:56.911Z,39.43
2023-03-29T01:49:56.923Z,39.44
2023-03-29T01:50:56.973Z,39.42
2023-03-29T01:51:56.992Z,39.40
2023-03-29T01:52:57.040Z,39.44
2023-03-29T01:53:57.087Z,39.43
2023-03-29T01:54:57.100Z,39.37
2023-03-29T01:55:57.143Z,39.40
2023-03-29T01:56:57.275Z,39.39
2023-03-29T01:57:57.226Z,39.36
2023-03-29T01:58:57.261Z,39.37
2023-03-29T01:59:57.294Z,39.33
2023-03-29T02:00:57.366Z,39.34
2023-03-29T02:01:57.398Z,39.33
2023-03-29T02:02:57.500Z,39.31
2023-03-29T02:03:57.510Z,39.31
2023-03-29T02:04:57.483Z,39.32
2023-03-29T02:05:57.504Z,39.32
2023-03-29T02:06:57.535Z,39.28
2023-03-29T02:07:57.590Z,39.30
2023-03-29T02:08:57.597Z,39.29
2023-03-29T02:09:57.639Z,39.29
2023-03-29T02:10:57.675Z,39.25
2023-03-29T02:11:57.717Z,39.26
2023-03-29T02:12:57.738Z,39.26
2023-03-29T02:13:57.779Z,39.27
2023-03-29T02:14:57.801Z,39.27
2023-03-29T02:15:57.872Z,39.27
2023-03-29T02:16:57.874Z,39.27
2023-03-29T02:17:58.065Z,39.24
2023-03-29T02:18:57.948Z,39.24
2023-03-29T02:19:57.961Z,39.20
2023-03-29T02:20:57.991Z,39.23
2023-03-29T02:21:58.021Z,39.22
2023-03-29T02:22:58.048Z,39.20
2023-03-29T02:23:58.074Z,39.23
2023-03-29T02:24:58.106Z,39.21
2023-03-29T02:25:58.137Z,39.19
2023-03-29T02:26:58.167Z,39.21
2023-03-29T02:27:58.208Z,39.17
2023-03-29T02:28:58.224Z,39.19
2023-03-29T02:29:58.262Z,39.16
2023-03-29T02:30:58.300Z,39.17
2023-03-29T02:31:58.327Z,39.15
2023-03-29T02:32:58.439Z,39.15
2023-03-29T02:33:58.390Z,39.16
2023-03-29T02:34:58.426Z,39.14
2023-03-29T02:35:58.540Z,39.15
2023-03-29T02:36:58.475Z,39.12
2023-03-29T02:37:58.506Z,39.10
2023-03-29T02:38:58.542Z,39.11
2023-03-29T02:39:58.569Z,39.11
2023-03-29T02:40:58.653Z,39.11
2023-03-29T02:41:58.641Z,39.10
2023-03-29T02:42:58.673Z,39.14
2023-03-29T02:43:58.697Z,39.11
2023-03-29T02:44:58.735Z,39.11
2023-03-29T02:45:58.765Z,39.10
2023-03-29T02:46:58.871Z,39.10
2023-03-29T02:47:58.871Z,39.12
2023-03-29T02:48:58.864Z,39.07
2023-03-29T02:49:58.904Z,39.09
2023-03-29T02:50:58.939Z,39.12
2023-03-29T02:51:58.973Z,39.09
2023-03-29T02:52:59.003Z,39.08
2023-03-29T02:53:59.030Z,39.08
2023-03-29T02:54:59.054Z,39.09
2023-03-29T02:55:59.095Z,39.09
2023-03-29T02:56:59.171Z,39.07
2023-03-29T02:57:59.166Z,39.07
2023-03-29T02:58:59.193Z,39.08
2023-03-29T02:59:59.224Z,39.05
2023-03-29T03:00:59.462Z,39.02
2023-03-29T03:01:59.331Z,39.04
2023-03-29T03:03:01.905Z,39.04
2023-03-29T03:03:59.378Z,39.07
2023-03-29T03:04:59.287Z,39.03
2023-03-29T03:05:59.284Z,39.02
2023-03-29T03:06:59.259Z,39.04
2023-03-29T03:07:59.244Z,39.03
2023-03-29T03:08:59.231Z,39.05
2023-03-29T03:09:59.219Z,39.02
2023-03-29T03:10:59.322Z,39.03
2023-03-29T03:11:59.186Z,39.00
2023-03-29T03:12:59.160Z,39.00
2023-03-29T03:13:59.136Z,39.00
2023-03-29T03:14:59.770Z,38.98
2023-03-29T03:15:59.202Z,38.97
2023-03-29T03:16:59.117Z,38.98
2023-03-29T03:17:59.127Z,38.97
2023-03-29T03:18:59.050Z,38.96
2023-03-29T03:19:59.027Z,38.98
2023-03-29T03:20:59.160Z,38.95
2023-03-29T03:21:58.972Z,38.94
2023-03-29T03:22:58.962Z,38.98
2023-03-29T03:23:58.935Z,38.94
2023-03-29T03:24:58.916Z,38.94
2023-03-29T03:25:58.893Z,38.93
2023-03-29T03:26:58.876Z,38.96
2023-03-29T03:27:58.884Z,38.95
2023-03-29T03:28:58.847Z,38.94
2023-03-29T03:29:58.813Z,38.93
2023-03-29T03:30:58.843Z,38.93
2023-03-29T03:31:58.816Z,38.94
2023-03-29T03:32:58.777Z,38.94
2023-03-29T03:33:58.720Z,38.93
2023-03-29T03:34:58.698Z,38.93
2023-03-29T03:35:58.706Z,38.92
2023-03-29T03:36:58.666Z,38.90
2023-03-29T03:37:58.644Z,38.91
2023-03-29T03:38:58.624Z,38.90
2023-03-29T03:39:58.604Z,38.89
2023-03-29T03:40:58.579Z,38.90
2023-03-29T03:41:58.569Z,38.90
2023-03-29T03:42:58.554Z,38.92
2023-03-29T03:43:58.523Z,38.90
2023-03-29T03:44:58.500Z,38.90
2023-03-29T03:45:58.538Z,38.90
2023-03-29T03:46:58.470Z,38.85
2023-03-29T03:47:58.473Z,38.86
2023-03-29T03:48:58.472Z,38.86
2023-03-29T03:49:58.596Z,38.85
2023-03-29T03:50:58.583Z,38.84
2023-03-29T03:51:58.573Z,38.88
2023-03-29T03:52:58.615Z,38.88
2023-03-29T03:53:58.649Z,38.83
2023-03-29T03:54:58.693Z,38.85
2023-03-29T03:55:58.724Z,38.81
2023-03-29T03:56:58.792Z,38.83
2023-03-29T03:57:58.789Z,38.79
2023-03-29T03:58:58.821Z,38.83
2023-03-29T03:59:58.847Z,38.82
2023-03-29T04:00:59.019Z,38.81
2023-03-29T04:01:58.948Z,38.80
2023-03-29T04:02:59.020Z,38.81
2023-03-29T04:03:59.039Z,38.77
2023-03-29T04:04:59.024Z,38.80
2023-03-29T04:05:59.048Z,38.81
2023-03-29T04:06:59.082Z,38.80
2023-03-29T04:07:59.119Z,38.81
2023-03-29T04:08:59.150Z,38.75
2023-03-29T04:09:59.188Z,38.76
2023-03-29T04:10:59.438Z,38.78
2023-03-29T04:11:59.261Z,38.77
2023-03-29T04:12:59.296Z,38.78
2023-03-29T04:13:59.322Z,38.73
2023-03-29T04:14:59.361Z,38.75
2023-03-29T04:16:01.390Z,38.75
2023-03-29T04:16:59.418Z,38.77
2023-03-29T04:17:59.581Z,38.72
2023-03-29T04:18:59.528Z,38.75
2023-03-29T04:19:59.527Z,38.75
2023-03-29T04:20:59.814Z,38.72
2023-03-29T04:21:59.598Z,38.73
2023-03-29T04:22:59.645Z,38.72
2023-03-29T04:23:59.672Z,38.73
2023-03-29T04:24:59.717Z,38.74
2023-03-29T04:25:59.742Z,38.72
2023-03-29T04:26:59.777Z,38.71
2023-03-29T04:27:59.806Z,38.73
2023-03-29T04:28:59.838Z,38.71
2023-03-29T04:29:59.871Z,38.68
2023-03-29T04:31:00.082Z,38.72
2023-03-29T04:31:59.947Z,38.72
2023-03-29T04:32:59.995Z,38.72
2023-03-29T04:34:00.493Z,38.69
2023-03-29T04:35:00.058Z,38.70
2023-03-29T04:36:00.238Z,38.69
2023-03-29T04:37:00.127Z,38.71
2023-03-29T04:38:00.174Z,38.68
2023-03-29T04:39:00.205Z,38.69
2023-03-29T04:40:00.248Z,38.67
2023-03-29T04:41:00.486Z,38.67
2023-03-29T04:42:00.319Z,38.66
2023-03-29T04:43:00.344Z,38.67
2023-03-29T04:44:00.384Z,38.66
2023-03-29T04:45:00.472Z,38.64
2023-03-29T04:46:00.516Z,38.66
2023-03-29T04:47:00.508Z,38.64
2023-03-29T04:48:00.607Z,38.67
2023-03-29T04:49:00.555Z,38.63
2023-03-29T04:50:00.580Z,38.65
2023-03-29T04:51:00.778Z,38.66
2023-03-29T04:52:00.646Z,38.62
2023-03-29T04:53:00.671Z,38.65
2023-03-29T04:54:00.731Z,38.62
2023-03-29T04:55:00.751Z,38.64
2023-03-29T04:56:00.779Z,38.60
2023-03-29T04:57:00.828Z,38.62
2023-03-29T04:58:00.848Z,38.61
2023-03-29T04:59:00.872Z,38.61
2023-03-29T05:00:01.194Z,38.62
2023-03-29T05:01:01.167Z,38.59
2023-03-29T05:02:01.049Z,38.60
2023-03-29T05:03:01.083Z,38.57
2023-03-29T05:04:01.086Z,38.57
2023-03-29T05:05:01.100Z,38.57
2023-03-29T05:06:01.119Z,38.57
2023-03-29T05:07:01.149Z,38.56
2023-03-29T05:08:01.176Z,38.57
2023-03-29T05:09:01.212Z,38.55
2023-03-29T05:10:01.263Z,38.57
2023-03-29T05:11:01.477Z,38.58
2023-03-29T05:12:01.313Z,38.57
2023-03-29T05:13:01.330Z,38.55
2023-03-29T05:14:01.356Z,38.56
2023-03-29T05:15:01.384Z,38.57
2023-03-29T05:16:01.439Z,38.55
2023-03-29T05:17:01.471Z,38.55
2023-03-29T05:18:01.556Z,38.49
2023-03-29T05:19:01.513Z,38.45
2023-03-29T05:20:01.565Z,38.41
2023-03-29T05:21:01.860Z,38.37
2023-03-29T05:22:01.598Z,38.30
2023-03-29T05:23:01.636Z,38.22
2023-03-29T05:24:01.664Z,38.30
2023-03-29T05:25:01.714Z,38.57
2023-03-29T05:26:01.735Z,38.62
2023-03-29T05:27:01.758Z,38.73
2023-03-29T05:28:01.786Z,38.82
2023-03-29T05:29:01.813Z,38.74
2023-03-29T05:30:01.879Z,38.67
2023-03-29T05:31:02.082Z,39.09
2023-03-29T05:32:01.969Z,39.07
2023-03-29T05:33:01.986Z,38.94
2023-03-29T05:34:01.978Z,38.86
2023-03-29T05:35:02.018Z,38.90
2023-03-29T05:36:02.110Z,39.03
2023-03-29T05:37:02.091Z,39.09
2023-03-29T05:38:02.114Z,39.09
2023-03-29T05:39:02.154Z,39.13
2023-03-29T05:40:05.554Z,39.21
2023-03-29T05:41:02.383Z,39.28
2023-03-29T05:42:02.138Z,39.29
2023-03-29T05:43:02.111Z,39.31
2023-03-29T05:44:02.781Z,39.33
2023-03-29T05:45:02.077Z,39.40
2023-03-29T05:46:02.084Z,39.41
2023-03-29T05:47:02.038Z,39.44
2023-03-29T05:48:02.101Z,39.46
2023-03-29T05:49:01.985Z,39.48
2023-03-29T05:50:01.976Z,39.50
2023-03-29T05:51:02.098Z,39.53
2023-03-29T05:52:01.934Z,39.55
2023-03-29T05:53:01.919Z,39.58
2023-03-29T05:54:01.891Z,39.58
2023-03-29T05:55:01.882Z,39.61
2023-03-29T05:56:01.861Z,39.63
2023-03-29T05:57:01.962Z,39.68
2023-03-29T05:58:01.840Z,39.67
2023-03-29T05:59:01.807Z,39.68
2023-03-29T06:00:01.801Z,39.69
2023-03-29T06:01:01.940Z,39.67
2023-03-29T06:02:01.788Z,39.71
2023-03-29T06:03:13.722Z,39.73
2023-03-29T06:04:02.770Z,39.73
2023-03-29T06:05:01.733Z,39.72
2023-03-29T06:06:01.687Z,39.78
2023-03-29T06:07:01.692Z,39.72
2023-03-29T06:08:01.661Z,39.74
2023-03-29T06:09:01.635Z,39.73
2023-03-29T06:10:01.615Z,39.76
2023-03-29T06:11:03.149Z,39.76
2023-03-29T06:12:01.586Z,39.76
2023-03-29T06:13:01.573Z,39.79
2023-03-29T06:14:01.556Z,39.80
2023-03-29T06:15:01.548Z,39.79
2023-03-29T06:16:01.543Z,39.79
2023-03-29T06:17:01.556Z,39.78
2023-03-29T06:18:01.556Z,39.80
2023-03-29T06:19:01.495Z,39.79
2023-03-29T06:20:02.391Z,39.82
2023-03-29T06:21:01.668Z,39.79
2023-03-29T06:22:01.447Z,39.79
2023-03-29T06:23:01.427Z,39.83
2023-03-29T06:24:01.411Z,39.76
2023-03-29T06:25:01.396Z,39.78
2023-03-29T06:26:01.404Z,40.03
2023-03-29T06:27:01.377Z,40.52
2023-03-29T06:28:01.347Z,41.53
2023-03-29T06:29:01.338Z,42.07
2023-03-29T06:30:01.341Z,42.62
2023-03-29T06:31:01.497Z,42.45
2023-03-29T06:32:01.290Z,42.65
2023-03-29T06:33:01.281Z,42.84
2023-03-29T06:34:01.227Z,43.00
2023-03-29T06:35:01.207Z,43.48
2023-03-29T06:36:01.872Z,43.72
2023-03-29T06:37:01.161Z,43.81
2023-03-29T06:38:01.124Z,43.84
2023-03-29T06:39:01.103Z,44.03
2023-03-29T06:40:01.092Z,44.13
2023-03-29T06:41:01.163Z,44.27
2023-03-29T06:42:10.113Z,44.26
2023-03-29T06:43:01.970Z,44.68
2023-03-29T06:44:00.927Z,44.58
2023-03-29T06:45:01.130Z,44.45
2023-03-29T06:46:00.932Z,44.62
2023-03-29T06:47:00.825Z,44.67
2023-03-29T06:48:00.828Z,45.05
2023-03-29T06:49:00.746Z,45.03
2023-03-29T06:50:00.738Z,45.12
2023-03-29T06:51:00.942Z,45.21
2023-03-29T06:52:00.659Z,45.27
2023-03-29T06:53:00.672Z,45.50
2023-03-29T06:54:01.028Z,45.60
2023-03-29T06:55:00.736Z,45.57
2023-03-29T06:56:00.764Z,45.96
2023-03-29T06:57:00.830Z,45.85
2023-03-29T06:58:02.656Z,45.97
2023-03-29T06:59:00.846Z,46.21
2023-03-29T07:00:01.128Z,46.27
2023-03-29T07:01:01.091Z,46.33
2023-03-29T07:02:01.001Z,46.41
2023-03-29T07:03:01.032Z,46.53
2023-03-29T07:04:01.002Z,46.56
2023-03-29T07:05:01.000Z,46.70
2023-03-29T07:06:01.015Z,46.77
2023-03-29T07:07:01.033Z,46.85
2023-03-29T07:08:01.059Z,46.94
2023-03-29T07:09:01.066Z,47.03
2023-03-29T07:10:01.083Z,47.13
2023-03-29T07:11:01.411Z,47.31
2023-03-29T07:12:01.109Z,47.40
2023-03-29T07:13:01.144Z,47.41
2023-03-29T07:14:01.149Z,47.52
2023-03-29T07:15:01.853Z,47.66
2023-03-29T07:16:01.204Z,47.46
2023-03-29T07:17:01.187Z,47.59
2023-03-29T07:18:01.228Z,47.77
2023-03-29T07:19:01.198Z,47.80
2023-03-29T07:20:01.877Z,47.82
2023-03-29T07:21:01.415Z,48.01
2023-03-29T07:22:01.257Z,48.13
2023-03-29T07:23:01.233Z,47.97
2023-03-29T07:24:01.224Z,47.84
2023-03-29T07:25:01.218Z,48.01
2023-03-29T07:26:01.232Z,48.11
2023-03-29T07:27:04.561Z,48.18
2023-03-29T07:28:01.186Z,48.32
2023-03-29T07:29:01.143Z,48.23
2023-03-29T07:30:01.147Z,48.32
2023-03-29T07:31:01.187Z,48.44
2023-03-29T07:32:01.854Z,48.56
2023-03-29T07:33:01.080Z,48.68
2023-03-29T07:34:00.914Z,48.78
2023-03-29T07:35:00.861Z,48.92
2023-03-29T07:36:00.898Z,48.93
2023-03-29T07:37:00.837Z,49.06
2023-03-29T07:38:00.739Z,49.17
2023-03-29T07:39:00.706Z,49.26
2023-03-29T07:40:00.633Z,49.41
2023-03-29T07:41:00.818Z,49.48
2023-03-29T07:42:00.538Z,49.57
2023-03-29T07:43:00.504Z,49.61
2023-03-29T07:44:01.987Z,49.62
2023-03-29T07:45:00.395Z,49.84
2023-03-29T07:46:00.348Z,50.03
2023-03-29T07:47:00.279Z,49.85
2023-03-29T07:48:00.275Z,50.08
2023-03-29T07:49:00.176Z,49.94
2023-03-29T07:50:00.205Z,50.06
2023-03-29T07:51:00.332Z,50.11
2023-03-29T07:52:00.047Z,50.24
2023-03-29T07:52:59.975Z,50.20
2023-03-29T07:53:59.998Z,50.52
2023-03-29T07:54:59.886Z,50.51
2023-03-29T07:55:59.816Z,50.44
2023-03-29T07:56:59.868Z,50.54
2023-03-29T07:57:59.722Z,50.65
2023-03-29T07:58:59.671Z,50.62
2023-03-29T07:59:59.621Z,50.64
2023-03-29T08:00:59.682Z,50.65
2023-03-29T08:01:59.529Z,50.58
2023-03-29T08:02:59.508Z,50.67
2023-03-29T08:03:59.485Z,50.86
2023-03-29T08:04:59.423Z,50.79
2023-03-29T08:05:59.312Z,50.78
2023-03-29T08:06:59.279Z,50.77
2023-03-29T08:07:59.229Z,51.24
2023-03-29T08:08:59.166Z,51.24
2023-03-29T08:09:59.111Z,51.32
2023-03-29T08:10:59.063Z,51.44
2023-03-29T08:11:59.011Z,51.44
2023-03-29T08:12:58.965Z,51.56
2023-03-29T08:13:58.910Z,51.12
2023-03-29T08:14:58.862Z,50.55
2023-03-29T08:15:58.805Z,50.14
2023-03-29T08:16:58.789Z,47.56
2023-03-29T08:17:58.785Z,45.41
2023-03-29T08:18:58.649Z,45.59
2023-03-29T08:19:58.640Z,45.17
2023-03-29T08:20:58.564Z,45.68
2023-03-29T08:21:58.515Z,43.84
2023-03-29T08:22:58.475Z,43.06
2023-03-29T08:23:58.425Z,41.08
2023-03-29T08:24:58.385Z,38.63
2023-03-29T08:25:58.872Z,37.75
2023-03-29T08:26:58.335Z,37.28
2023-03-29T08:27:58.314Z,37.22
2023-03-29T08:28:58.296Z,37.92
2023-03-29T08:29:58.282Z,38.68
2023-03-29T08:30:58.287Z,39.38
2023-03-29T08:31:58.234Z,39.96
2023-03-29T08:32:58.224Z,40.14
2023-03-29T08:33:58.167Z,40.72
2023-03-29T08:34:58.140Z,40.86
2023-03-29T08:35:58.151Z,41.03
2023-03-29T08:36:58.074Z,41.33
2023-03-29T08:37:58.028Z,41.42
2023-03-29T08:38:57.991Z,41.50
2023-03-29T08:39:57.958Z,41.53
2023-03-29T08:40:57.930Z,41.56
2023-03-29T08:41:57.891Z,41.83
2023-03-29T08:42:57.848Z,41.94
2023-03-29T08:43:57.797Z,42.35
2023-03-29T08:44:57.820Z,42.45
2023-03-29T08:45:57.755Z,42.53
2023-03-29T08:46:57.775Z,42.59
2023-03-29T08:47:57.703Z,42.70
2023-03-29T08:48:57.587Z,42.76
2023-03-29T08:49:57.549Z,43.08
2023-03-29T08:50:57.563Z,43.04
2023-03-29T08:51:57.475Z,43.37
2023-03-29T08:52:57.417Z,43.58
2023-03-29T08:53:57.384Z,43.39
2023-03-29T08:54:57.347Z,43.49
2023-03-29T08:55:57.284Z,43.59
2023-03-29T08:56:57.271Z,43.71
2023-03-29T08:57:57.226Z,43.82
2023-03-29T08:58:57.232Z,43.99
2023-03-29T08:59:57.191Z,44.14
2023-03-29T09:00:57.181Z,44.37
2023-03-29T09:01:57.211Z,44.38
2023-03-29T09:02:57.327Z,44.52
2023-03-29T09:03:57.305Z,44.51
2023-03-29T09:04:57.135Z,44.65
2023-03-29T09:05:57.115Z,44.84
2023-03-29T09:06:57.090Z,44.96
2023-03-29T09:07:57.072Z,44.94
2023-03-29T09:08:57.124Z,45.16
2023-03-29T09:09:57.035Z,45.12
2023-03-29T09:10:57.015Z,45.27
2023-03-29T09:11:56.994Z,45.19
2023-03-29T09:12:57.011Z,43.28
2023-03-29T09:13:56.994Z,41.15
2023-03-29T09:14:57.004Z,41.07
2023-03-29T09:15:57.086Z,41.19
2023-03-29T09:16:57.075Z,41.21
2023-03-29T09:17:57.113Z,41.80
2023-03-29T09:18:57.128Z,42.33
2023-03-29T09:19:57.169Z,42.42
2023-03-29T09:20:57.210Z,42.63
2023-03-29T09:21:57.244Z,42.80
2023-03-29T09:22:57.271Z,42.89
2023-03-29T09:23:57.322Z,42.92
2023-03-29T09:24:57.346Z,42.87
2023-03-29T09:25:57.384Z,42.82
2023-03-29T09:26:57.428Z,42.84
2023-03-29T09:27:57.458Z,42.87
2023-03-29T09:28:57.492Z,42.87
2023-03-29T09:29:57.500Z,42.88
2023-03-29T09:30:58.398Z,42.86
2023-03-29T09:31:57.604Z,42.91
2023-03-29T09:32:57.661Z,42.89
2023-03-29T09:33:57.646Z,42.91
2023-03-29T09:34:57.616Z,42.94
2023-03-29T09:35:57.649Z,42.96
2023-03-29T09:36:57.634Z,42.97
2023-03-29T09:37:57.676Z,42.96
2023-03-29T09:38:57.676Z,42.96
2023-03-29T09:39:57.686Z,42.97
2023-03-29T09:40:57.683Z,43.00
2023-03-29T09:41:57.681Z,42.97
2023-03-29T09:42:57.682Z,43.00
2023-03-29T09:43:57.680Z,43.03
2023-03-29T09:44:57.649Z,43.04
2023-03-29T09:45:57.684Z,43.02
2023-03-29T09:46:57.646Z,43.02
2023-03-29T09:47:57.768Z,43.03
2023-03-29T09:48:57.673Z,43.02
2023-03-29T09:49:57.611Z,43.04
2023-03-29T09:50:57.606Z,43.04
2023-03-29T09:51:57.594Z,43.03
2023-03-29T09:52:58.418Z,43.03
2023-03-29T09:53:57.580Z,43.04
2023-03-29T09:54:57.579Z,43.01
2023-03-29T09:55:57.627Z,43.01
2023-03-29T09:56:57.656Z,43.00
2023-03-29T09:57:57.670Z,43.02
2023-03-29T09:58:57.702Z,43.01
2023-03-29T09:59:57.712Z,42.99
2023-03-29T10:00:57.766Z,42.97
2023-03-29T10:01:57.765Z,42.96
2023-03-29T10:02:57.868Z,42.96
2023-03-29T10:03:57.810Z,42.95
2023-03-29T10:04:57.818Z,42.95
2023-03-29T10:05:57.816Z,42.95
2023-03-29T10:06:57.799Z,42.95
2023-03-29T10:07:57.791Z,42.92
2023-03-29T10:08:57.821Z,42.95
2023-03-29T10:09:57.810Z,42.96
2023-03-29T10:10:57.837Z,42.95
2023-03-29T10:11:57.847Z,42.95
2023-03-29T10:12:57.856Z,42.94
2023-03-29T10:13:57.874Z,42.90
2023-03-29T10:14:57.914Z,42.92
2023-03-29T10:15:57.941Z,42.88
2023-03-29T10:16:57.989Z,42.93
2023-03-29T10:17:58.060Z,42.86
2023-03-29T10:18:57.977Z,42.85
2023-03-29T10:19:57.975Z,42.87
2023-03-29T10:20:57.956Z,42.83
2023-03-29T10:21:57.965Z,42.84
2023-03-29T10:22:57.937Z,42.80
2023-03-29T10:23:57.934Z,42.80
2023-03-29T10:24:57.942Z,42.78
2023-03-29T10:25:57.915Z,42.77
2023-03-29T10:26:57.905Z,42.75
2023-03-29T10:27:57.911Z,42.78
2023-03-29T10:28:57.889Z,42.75
2023-03-29T10:29:57.869Z,42.74
2023-03-29T10:30:57.868Z,42.70
2023-03-29T10:31:57.906Z,42.70
2023-03-29T10:32:57.979Z,42.69
2023-03-29T10:33:57.810Z,42.71
2023-03-29T10:34:57.794Z,42.73
2023-03-29T10:35:57.792Z,42.71
2023-03-29T10:36:57.752Z,42.71
2023-03-29T10:37:57.765Z,42.72
2023-03-29T10:38:57.763Z,42.67
2023-03-29T10:39:57.785Z,42.69
2023-03-29T10:40:57.771Z,42.67
2023-03-29T10:41:57.771Z,42.68
2023-03-29T10:42:57.768Z,42.65
2023-03-29T10:43:57.710Z,42.67
2023-03-29T10:44:57.678Z,42.67
2023-03-29T10:45:57.655Z,42.65
2023-03-29T10:46:57.610Z,42.65
2023-03-29T10:47:57.636Z,42.66
2023-03-29T10:48:57.584Z,42.67
2023-03-29T10:49:57.567Z,42.65
2023-03-29T10:50:57.536Z,42.64
2023-03-29T10:51:57.499Z,42.71
2023-03-29T10:52:57.489Z,42.64
2023-03-29T10:53:57.483Z,42.67
2023-03-29T10:54:57.468Z,42.65
2023-03-29T10:55:57.440Z,42.65
2023-03-29T10:56:57.495Z,42.60
2023-03-29T10:57:57.451Z,42.61
2023-03-29T10:58:57.472Z,42.62
2023-03-29T10:59:57.463Z,42.58
2023-03-29T11:00:57.440Z,42.57
2023-03-29T11:01:57.482Z,42.53
2023-03-29T11:02:57.533Z,42.52
2023-03-29T11:03:57.460Z,42.51
2023-03-29T11:04:57.374Z,42.49
2023-03-29T11:05:57.368Z,42.46
2023-03-29T11:06:57.356Z,42.46
2023-03-29T11:07:57.348Z,42.47
2023-03-29T11:08:57.350Z,42.41
2023-03-29T11:09:57.337Z,42.42
2023-03-29T11:10:57.312Z,42.42
2023-03-29T11:12:08.277Z,42.39
2023-03-29T11:12:58.256Z,42.36
2023-03-29T11:13:59.416Z,42.34
2023-03-29T11:14:57.205Z,42.38
2023-03-29T11:15:57.224Z,42.35
2023-03-29T11:16:57.149Z,42.30
2023-03-29T11:17:57.152Z,42.30
2023-03-29T11:18:57.085Z,42.28
2023-03-29T11:19:57.078Z,42.27
2023-03-29T11:20:57.041Z,42.25
2023-03-29T11:21:57.020Z,42.22
2023-03-29T11:22:57.990Z,42.28
2023-03-29T11:23:56.948Z,42.23
2023-03-29T11:24:56.919Z,42.20
2023-03-29T11:25:56.887Z,42.21
2023-03-29T11:26:56.857Z,42.24
2023-03-29T11:27:56.832Z,42.22
2023-03-29T11:28:56.815Z,42.23
2023-03-29T11:29:56.772Z,42.19
2023-03-29T11:30:56.818Z,42.18
2023-03-29T11:31:56.836Z,42.20
2023-03-29T11:32:56.705Z,42.17
2023-03-29T11:33:56.660Z,42.19
2023-03-29T11:34:56.612Z,42.15
2023-03-29T11:35:56.643Z,42.15
2023-03-29T11:36:56.557Z,42.16
2023-03-29T11:37:56.532Z,42.13
2023-03-29T11:38:56.504Z,42.14
2023-03-29T11:39:56.462Z,42.17
2023-03-29T11:40:56.535Z,42.17
2023-03-29T11:41:56.419Z,42.17
2023-03-29T11:42:56.382Z,42.19
2023-03-29T11:43:56.369Z,42.22
2023-03-29T11:44:56.336Z,42.22
2023-03-29T11:45:56.314Z,42.23
2023-03-29T11:46:56.322Z,42.24
2023-03-29T11:47:56.310Z,42.23
2023-03-29T11:48:56.237Z,42.26
2023-03-29T11:49:56.274Z,42.25
2023-03-29T11:50:56.212Z,42.23
2023-03-29T11:51:56.180Z,42.24
2023-03-29T11:52:56.175Z,42.25
2023-03-29T11:53:56.149Z,42.23
2023-03-29T11:54:56.132Z,42.22
2023-03-29T11:55:56.114Z,42.25
2023-03-29T11:56:56.117Z,42.23
2023-03-29T11:57:56.089Z,42.23
2023-03-29T11:58:56.065Z,42.21
2023-03-29T11:59:56.045Z,42.24
2023-03-29T12:00:56.034Z,42.24
2023-03-29T12:01:56.044Z,42.23
2023-03-29T12:02:56.053Z,42.25
2023-03-29T12:03:56.055Z,42.23
2023-03-29T12:04:55.980Z,42.24
2023-03-29T12:05:55.970Z,42.26
2023-03-29T12:06:55.978Z,42.24
2023-03-29T12:07:55.944Z,42.23
2023-03-29T12:08:55.926Z,42.20
2023-03-29T12:09:55.913Z,42.22
2023-03-29T12:10:55.904Z,42.17
2023-03-29T12:11:55.897Z,42.20
2023-03-29T12:12:55.893Z,42.20
2023-03-29T12:13:55.851Z,42.18
2023-03-29T12:14:55.850Z,42.17
2023-03-29T12:15:55.813Z,42.15
2023-03-29T12:16:55.861Z,42.12
2023-03-29T12:17:56.451Z,42.12
2023-03-29T12:18:55.775Z,42.10
2023-03-29T12:19:55.754Z,42.10
2023-03-29T12:20:55.741Z,42.10
2023-03-29T12:21:55.730Z,42.08
2023-03-29T12:22:55.775Z,42.07
2023-03-29T12:23:55.711Z,42.07
2023-03-29T12:24:55.740Z,42.07
2023-03-29T12:25:55.683Z,42.08
2023-03-29T12:26:55.670Z,42.07
2023-03-29T12:27:55.672Z,42.08
2023-03-29T12:28:55.659Z,42.08
2023-03-29T12:29:55.643Z,42.05
2023-03-29T12:30:55.633Z,42.08
2023-03-29T12:31:55.665Z,42.07
2023-03-29T12:32:55.683Z,42.07
2023-03-29T12:33:55.602Z,42.09
2023-03-29T12:34:55.630Z,42.08
2023-03-29T12:35:55.598Z,42.09
2023-03-29T12:36:55.566Z,42.07
2023-03-29T12:37:55.555Z,42.06
2023-03-29T12:38:55.546Z,42.04
2023-03-29T12:39:55.543Z,42.02
2023-03-29T12:40:55.538Z,41.99
2023-03-29T12:41:55.554Z,42.01
2023-03-29T12:42:55.511Z,42.02
2023-03-29T12:43:55.502Z,41.98
2023-03-29T12:44:55.890Z,41.98
2023-03-29T12:45:56.081Z,42.00
2023-03-29T12:46:55.464Z,41.97
2023-03-29T12:47:55.499Z,41.97
2023-03-29T12:48:55.444Z,41.98
2023-03-29T12:49:55.443Z,41.99
2023-03-29T12:50:55.436Z,42.00
2023-03-29T12:51:55.421Z,41.97
2023-03-29T12:52:55.420Z,41.96